Terminal Aerodrome Forecast
Issued by NWS

Home | Current Version | Previous Version | Text Only | Print | Product List | Glossary On
Versions: 1 2 3 4 5 6 7 8 9 10 11 12 13 14 15 16 17 18 19 20 21 22 23 24
000
FTUS45 KBOU 171307 AAA
TAFBJC
TAF AMD
KBJC 171307Z 1713/1812 26006KT P6SM SCT220
     FM171500 VRB05KT P6SM FEW100 SCT220
     FM172100 03007KT P6SM FEW140 SCT220
     FM180100 26010KT P6SM FEW140 SCT220=

USA.gov is the U.S. government's official web portal to all federal, state and local government web resources and services.